Buckden, United Kingdom
Current Conditions -  °F | °C
As of 4:20 PM on Saturday 25 Oct 2014 (Local Time) from EGSC Reporting Station
Few Clouds Few Clouds  
Wind Chill: 57°   Ceiling: Unl
Heat Index: 57°   Visibility: 6mi
Dew Point: 46°   Wind: 13mph
Humidity: 67%   Direction: 220°SW
Pressure: 30.03"   Gusts: NA
Location:  52.29°N, 0.25°W
Report Text: EGSC 251520Z 22011KT 170V260 9999 FEW033 14/08 Q1017
Loading
Personal Weather Stations






























Interactive Weather Map New forecast layout! Learn more

10-Day Weather Forecast

Advertisements
Track Severe Weather on mobile